Time;durP1;ratioP1;P1;durP2;ratioP2;P2;SDS_P1;SDS_P2;PMS_P1;PMS_P2;Temp;Humidity;BMP_temperature;BMP_pressure;BME280_temperature;BME280_humidity;BME280_pressure;Samples;Min_cycle;Max_cycle;Signal;HPM_P1;HPM_P2
2022/12/13 00:01:59;;;;;;;0.90;0.75;;;;;;;-3.72;73.58;94759.84;4379181;32;20192;-60
2022/12/13 00:04:25;;;;;;;0.90;0.88;;;;;;;-3.47;72.69;94762.34;4379190;32;20192;-59
2022/12/13 00:06:52;;;;;;;0.77;0.77;;;;;;;-3.63;73.19;94753.38;4383281;32;20197;-59
2022/12/13 00:09:18;;;;;;;1.27;1.17;;;;;;;-3.85;74.54;94758.22;4374315;32;20260;-59
2022/12/13 00:11:44;;;;;;;0.80;0.80;;;;;;;-3.80;73.92;94752.41;4367351;32;20197;-59
2022/12/13 00:14:12;;;;;;;3.60;1.40;;;;;;;-4.22;75.29;94756.69;4375200;32;20180;-58
2022/12/13 00:16:38;;;;;;;1.02;1.02;;;;;;;-4.08;75.35;94755.50;4369987;32;20196;-59
2022/12/13 00:19:04;;;;;;;0.82;0.82;;;;;;;-3.77;74.43;94748.59;4379480;32;20192;-59
2022/12/13 00:21:32;;;;;;;1.53;0.50;;;;;;;-3.70;73.65;94752.66;4375160;32;20185;-59
2022/12/13 00:23:59;;;;;;;0.20;0.20;;;;;;;-3.69;73.24;94745.69;4365453;32;20632;-59
2022/12/13 00:26:30;;;;;;;0.50;0.50;;;;;;;-3.81;74.38;94743.84;4366557;32;20199;-59
2022/12/13 00:28:59;;;;;;;1.92;0.88;;;;;;;-3.70;73.81;94749.28;4364149;32;20180;-59
2022/12/13 00:31:25;;;;;;;0.82;0.82;;;;;;;-4.09;75.38;94750.56;4398043;32;20303;-59
2022/12/13 00:33:51;;;;;;;1.65;0.85;;;;;;;-4.56;77.05;94758.00;4369577;32;20184;-58
2022/12/13 00:36:16;;;;;;;0.70;0.70;;;;;;;-4.63;78.29;94752.91;4364381;32;20219;-59
2022/12/13 00:38:42;;;;;;;0.40;0.40;;;;;;;-4.86;78.89;94763.03;4362485;32;20204;-58
2022/12/13 00:41:18;;;;;;;0.37;0.37;;;;;;;-5.05;79.80;94756.25;4378154;32;20208;-59
2022/12/13 00:43:43;;;;;;;0.50;0.50;;;;;;;-5.26;80.54;94749.63;4366557;32;20195;-59
2022/12/13 00:46:17;;;;;;;0.97;0.97;;;;;;;-5.06;80.46;94750.28;4368901;32;20238;-59
2022/12/13 00:48:44;;;;;;;0.45;0.45;;;;;;;-4.71;79.35;94749.78;4384617;32;20298;-58
2022/12/13 00:51:10;;;;;;;0.88;0.70;;;;;;;-4.56;78.19;94745.06;4373922;32;20279;-58
2022/12/13 00:53:36;;;;;;;1.37;1.37;;;;;;;-5.00;78.85;94753.81;4382599;32;20180;-58
2022/12/13 00:56:03;;;;;;;2.22;1.62;;;;;;;-5.32;80.25;94751.25;4382999;32;20192;-59
2022/12/13 00:58:28;;;;;;;0.85;0.85;;;;;;;-5.21;80.80;94748.00;4374512;32;20220;-59
2022/12/13 01:01:02;;;;;;;0.60;0.60;;;;;;;-5.00;80.07;94749.44;4366977;32;20247;-58
2022/12/13 01:03:28;;;;;;;0.55;0.55;;;;;;;-4.72;78.52;94743.03;4383224;32;20263;-58
2022/12/13 01:05:53;;;;;;;1.03;0.53;;;;;;;-4.90;77.95;94748.94;4375008;32;20260;-59
2022/12/13 01:08:18;;;;;;;0.90;0.90;;;;;;;-4.91;78.06;94747.38;4367455;32;20254;-59
2022/12/13 01:10:45;;;;;;;0.37;0.30;;;;;;;-4.77;77.37;94742.87;4378077;32;20204;-59
2022/12/13 01:13:11;;;;;;;0.70;0.70;;;;;;;-4.71;77.16;94736.84;4369179;32;20259;-58
2022/12/13 01:15:44;;;;;;;1.63;1.53;;;;;;;-4.72;77.40;94737.84;4367258;32;20189;-59
2022/12/13 01:18:11;;;;;;;0.55;0.55;;;;;;;-4.38;75.65;94742.50;4379732;32;20226;-59
2022/12/13 01:20:36;;;;;;;0.40;0.40;;;;;;;-4.27;74.47;94734.00;4367973;32;20191;-58
2022/12/13 01:23:02;;;;;;;1.20;0.40;;;;;;;-4.38;74.98;94729.56;4368989;32;20193;-60
2022/12/13 01:25:27;;;;;;;1.07;0.60;;;;;;;-4.37;74.54;94733.75;4371474;32;20267;-59
2022/12/13 01:27:52;;;;;;;0.83;0.60;;;;;;;-4.76;75.32;94734.09;4368462;32;20276;-59
2022/12/13 01:30:19;;;;;;;0.87;0.87;;;;;;;-4.77;75.29;94727.34;4370473;32;20262;-59
2022/12/13 01:32:44;;;;;;;0.47;0.47;;;;;;;-4.80;75.63;94725.22;4377150;32;20207;-59
2022/12/13 01:35:10;;;;;;;0.97;0.97;;;;;;;-4.91;75.53;94724.88;4371614;32;20189;-59
2022/12/13 01:37:35;;;;;;;0.67;0.67;;;;;;;-4.76;75.30;94714.19;4371945;32;20192;-59
2022/12/13 01:40:04;;;;;;;0.87;0.87;;;;;;;-4.71;75.12;94719.53;4382059;32;20230;-59
2022/12/13 01:42:29;;;;;;;3.62;0.50;;;;;;;-4.43;74.10;94716.47;4374637;32;20176;-59
2022/12/13 01:45:00;;;;;;;0.30;0.30;;;;;;;-4.22;73.22;94707.50;4393944;32;20226;-59
2022/12/13 01:47:45;;;;;;;0.82;0.82;;;;;;;-4.29;73.29;94704.97;4364935;32;20199;-59
2022/12/13 01:50:17;;;;;;;3.75;1.52;;;;;;;-4.23;72.77;94696.34;4369060;32;20215;-59
2022/12/13 01:52:43;;;;;;;1.27;1.17;;;;;;;-4.01;72.20;94695.87;4374972;32;20260;-59
2022/12/13 01:55:11;;;;;;;1.80;1.70;;;;;;;-4.28;73.26;94692.81;4372947;32;20311;-59
2022/12/13 01:57:40;;;;;;;0.45;0.45;;;;;;;-4.19;73.13;94689.72;4376208;32;20197;-59
2022/12/13 02:00:06;;;;;;;0.37;0.37;;;;;;;-4.38;74.39;94685.56;4367869;32;20185;-59
2022/12/13 02:02:32;;;;;;;0.45;0.45;;;;;;;-4.08;73.87;94679.63;4382924;32;20226;-59
2022/12/13 02:05:06;;;;;;;0.90;0.90;;;;;;;-4.18;73.38;94680.97;4368604;32;20256;-59
2022/12/13 02:07:35;;;;;;;0.30;0.30;;;;;;;-4.11;73.85;94680.84;4360765;32;20176;-59
2022/12/13 02:10:03;;;;;;;0.40;0.40;;;;;;;-4.25;74.96;94685.41;4371726;32;20200;-59
2022/12/13 02:12:31;;;;;;;1.55;0.60;;;;;;;-4.35;74.86;94679.94;4369112;32;20176;-59
2022/12/13 02:15:03;;;;;;;0.57;0.55;;;;;;;-4.34;74.99;94681.53;4363848;32;20181;-59
2022/12/13 02:17:31;;;;;;;0.20;0.20;;;;;;;-4.28;74.81;94678.06;4368336;32;20258;-59
2022/12/13 02:20:25;;;;;;;1.02;1.00;;;;;;;-4.41;74.58;94675.66;4364524;32;20206;-59
2022/12/13 02:23:23;;;;;;;2.75;1.17;;;;;;;-4.04;74.16;94676.41;4372700;32;20202;-59
2022/12/13 02:26:16;;;;;;;1.58;1.27;;;;;;;-4.30;75.01;94669.72;4366880;32;20218;-59
2022/12/13 02:29:00;;;;;;;0.40;0.37;;;;;;;-4.32;74.81;94655.44;4389781;32;20185;-60
2022/12/13 02:31:34;;;;;;;0.95;0.95;;;;;;;-4.59;75.63;94658.34;4389644;32;20181;-58
2022/12/13 02:34:12;;;;;;;0.93;0.93;;;;;;;-4.50;76.08;94649.25;4373830;32;20231;-59
2022/12/13 02:36:45;;;;;;;0.93;0.90;;;;;;;-4.25;74.96;94649.16;4373006;32;20237;-61
2022/12/13 02:39:21;;;;;;;0.93;0.93;;;;;;;-4.29;75.01;94649.81;4364970;32;20196;-58
2022/12/13 02:41:55;;;;;;;1.92;1.02;;;;;;;-4.06;74.75;94649.94;4363948;32;20211;-59
2022/12/13 02:44:25;;;;;;;0.82;0.82;;;;;;;-3.99;74.36;94648.06;4365555;32;20216;-59
2022/12/13 02:47:31;;;;;;;3.20;1.17;;;;;;;-4.13;74.78;94648.41;4367744;32;20193;-59
2022/12/13 02:50:01;;;;;;;0.40;0.40;;;;;;;-4.02;73.88;94645.09;4366143;32;20184;-59
2022/12/13 02:52:29;;;;;;;0.40;0.40;;;;;;;-3.72;72.97;94632.91;4359919;32;20189;-60
2022/12/13 02:54:56;;;;;;;0.50;0.50;;;;;;;-4.12;74.03;94627.50;4379954;32;20206;-59
2022/12/13 02:57:43;;;;;;;0.40;0.40;;;;;;;-4.43;74.01;94625.13;4363895;32;20208;-59
2022/12/13 03:00:34;;;;;;;0.85;0.73;;;;;;;-4.49;75.31;94619.00;4354908;32;20192;-60
2022/12/13 03:03:08;;;;;;;0.95;0.95;;;;;;;-4.78;76.54;94622.34;4359194;32;20304;-59
2022/12/13 03:08:47;;;;;;;0.62;0.62;;;;;;;-4.49;76.35;94608.66;4358861;32;20302;-59
2022/12/13 03:11:15;;;;;;;0.88;0.65;;;;;;;-4.57;76.61;94614.09;4364707;32;20185;-59
2022/12/13 03:13:54;;;;;;;0.85;0.50;;;;;;;-4.52;76.28;94607.28;4375014;32;20184;-59
2022/12/13 03:16:29;;;;;;;2.17;1.20;;;;;;;-4.48;76.29;94618.00;4370709;32;20294;-58
2022/12/13 03:19:00;;;;;;;0.20;0.20;;;;;;;-4.92;77.27;94621.66;4385482;32;20184;-59
2022/12/13 03:21:26;;;;;;;1.08;0.98;;;;;;;-4.95;77.03;94612.53;4371557;32;20219;-59
2022/12/13 03:23:52;;;;;;;1.30;1.30;;;;;;;-4.82;76.97;94611.63;4371082;32;20177;-59
2022/12/13 03:26:21;;;;;;;0.30;0.30;;;;;;;-4.42;75.33;94611.97;4364053;32;20181;-59
2022/12/13 03:28:47;;;;;;;1.17;1.00;;;;;;;-4.27;74.51;94612.34;4370414;32;20177;-59
2022/12/13 03:31:12;;;;;;;1.17;0.87;;;;;;;-4.52;74.52;94622.03;4383729;32;20180;-59
2022/12/13 03:33:37;;;;;;;2.27;1.60;;;;;;;-4.42;73.94;94616.34;4391499;32;20188;-59
2022/12/13 03:36:04;;;;;;;0.40;0.40;;;;;;;-4.67;74.91;94619.81;4378285;32;20223;-58
2022/12/13 03:38:31;;;;;;;0.40;0.40;;;;;;;-4.59;75.18;94611.78;4370480;32;20189;-59
2022/12/13 03:41:04;;;;;;;0.60;0.60;;;;;;;-4.66;74.98;94621.38;4368916;32;20207;-59
2022/12/13 03:43:30;;;;;;;0.43;0.35;;;;;;;-4.65;76.02;94617.00;4372265;32;20200;-59
2022/12/13 03:45:55;;;;;;;0.63;0.60;;;;;;;-4.73;75.02;94610.31;4372186;32;20245;-59
2022/12/13 03:48:21;;;;;;;1.50;1.40;;;;;;;-4.60;75.20;94614.56;4370157;32;20188;-59
2022/12/13 03:50:47;;;;;;;0.47;0.47;;;;;;;-4.47;74.69;94609.22;4391369;32;20177;-59
2022/12/13 03:53:12;;;;;;;0.87;0.87;;;;;;;-4.68;74.62;94601.91;4367891;32;20188;-59
2022/12/13 03:55:38;;;;;;;0.30;0.30;;;;;;;-4.52;74.28;94601.31;4377880;32;20231;-60
2022/12/13 03:58:03;;;;;;;0.50;0.50;;;;;;;-4.46;74.00;94595.28;4382941;32;20193;-58
2022/12/13 04:00:29;;;;;;;2.40;0.87;;;;;;;-4.33;73.86;94595.09;4375039;32;20197;-58
2022/12/13 04:02:54;;;;;;;0.73;0.53;;;;;;;-4.44;73.70;94592.47;4369851;32;20193;-59
2022/12/13 04:05:19;;;;;;;0.47;0.47;;;;;;;-4.33;73.18;94589.13;4361836;32;20204;-59
2022/12/13 04:07:45;;;;;;;1.13;0.83;;;;;;;-4.66;73.84;94582.59;4380362;32;20189;-59
2022/12/13 04:10:10;;;;;;;1.00;1.00;;;;;;;-4.55;74.06;94586.22;4367527;32;20251;-59
2022/12/13 04:15:19;;;;;;;0.75;0.75;;;;;;;-4.69;74.13;94588.19;4372708;32;20327;-60
2022/12/13 04:17:45;;;;;;;0.57;0.57;;;;;;;-4.72;73.83;94590.41;4396854;32;20188;-59
2022/12/13 04:20:10;;;;;;;0.63;0.57;;;;;;;-4.62;73.84;94585.53;4381758;32;20189;-59
2022/12/13 04:22:36;;;;;;;3.00;1.53;;;;;;;-4.90;75.11;94594.59;4379529;32;20207;-59
2022/12/13 04:25:02;;;;;;;0.70;0.70;;;;;;;-4.62;74.58;94582.94;4373004;32;20184;-59
2022/12/13 04:27:27;;;;;;;0.65;0.65;;;;;;;-4.54;73.72;94586.00;4386220;32;22597;-59
2022/12/13 04:29:52;;;;;;;0.67;0.43;;;;;;;-4.55;73.51;94588.81;4373270;32;20241;-59
2022/12/13 04:32:18;;;;;;;0.80;0.80;;;;;;;-4.64;73.53;94583.16;4386606;32;20252;-59
2022/12/13 04:34:43;;;;;;;0.30;0.30;;;;;;;-4.30;72.21;94586.12;4373061;32;20216;-58
2022/12/13 04:37:08;;;;;;;0.93;0.93;;;;;;;-4.60;72.51;94586.12;4377975;32;20224;-59
2022/12/13 04:39:34;;;;;;;0.40;0.37;;;;;;;-4.60;73.23;94592.06;4375633;32;20180;-59
2022/12/13 04:41:59;;;;;;;0.70;0.37;;;;;;;-4.76;73.55;94591.84;4365997;32;20189;-59
2022/12/13 04:44:25;;;;;;;1.37;0.73;;;;;;;-4.89;73.41;94588.41;4369624;32;20201;-59
2022/12/13 04:46:50;;;;;;;0.43;0.43;;;;;;;-5.08;73.80;94592.00;4379671;32;20192;-60
2022/12/13 04:49:15;;;;;;;0.67;0.67;;;;;;;-5.43;74.46;94593.53;4377442;32;20199;-59
2022/12/13 04:51:41;;;;;;;0.33;0.33;;;;;;;-5.34;74.80;94590.47;4370673;32;20186;-59
2022/12/13 04:54:06;;;;;;;0.40;0.40;;;;;;;-5.58;75.58;94586.09;4388025;32;20185;-59
2022/12/13 04:56:32;;;;;;;0.40;0.40;;;;;;;-5.56;75.81;94589.25;4370320;32;20189;-58
2022/12/13 04:58:57;;;;;;;1.33;1.23;;;;;;;-5.58;75.77;94581.72;4384923;32;20287;-59
2022/12/13 05:01:23;;;;;;;0.43;0.43;;;;;;;-5.40;75.27;94575.81;4364584;32;20185;-59
2022/12/13 05:03:48;;;;;;;1.10;0.27;;;;;;;-5.10;74.66;94581.09;4373185;32;20187;-59
2022/12/13 05:06:13;;;;;;;0.27;0.27;;;;;;;-5.40;74.93;94580.22;4378499;32;20188;-59
2022/12/13 05:08:40;;;;;;;0.30;0.10;;;;;;;-5.31;75.82;94571.16;4370785;32;20201;-59
2022/12/13 05:11:06;;;;;;;0.10;0.10;;;;;;;-5.19;75.17;94572.81;4369792;32;20233;-59
2022/12/13 05:13:32;;;;;;;1.23;1.12;;;;;;;-5.16;74.34;94571.59;4379592;32;20196;-59
2022/12/13 05:16:00;;;;;;;3.60;1.53;;;;;;;-5.04;73.88;94567.31;4377129;32;20375;-59
2022/12/13 05:18:25;;;;;;;1.67;0.85;;;;;;;-4.85;73.48;94561.13;4365271;32;20222;-59
2022/12/13 05:20:51;;;;;;;5.53;1.07;;;;;;;-5.09;73.60;94553.44;4374512;32;20190;-59
2022/12/13 05:23:17;;;;;;;1.23;1.03;;;;;;;-5.20;74.57;94557.53;4373315;32;20185;-59
2022/12/13 05:25:43;;;;;;;0.17;0.17;;;;;;;-5.21;74.56;94561.94;4372382;32;20215;-59
2022/12/13 05:28:08;;;;;;;0.50;0.47;;;;;;;-5.49;75.40;94553.06;4368096;32;20185;-59
2022/12/13 05:30:37;;;;;;;0.87;0.87;;;;;;;-5.57;76.17;94554.91;4376663;32;20199;-59
2022/12/13 05:33:02;;;;;;;1.00;0.85;;;;;;;-5.27;75.50;94549.06;4372940;32;20188;-58
2022/12/13 05:35:28;;;;;;;1.53;1.43;;;;;;;-5.39;75.65;94553.34;4361046;32;20268;-60
2022/12/13 05:37:53;;;;;;;0.90;0.90;;;;;;;-5.22;75.51;94556.97;4369605;32;20211;-58
2022/12/13 05:40:19;;;;;;;2.27;0.37;;;;;;;-5.02;74.65;94559.34;4370848;32;20199;-59
2022/12/13 05:42:44;;;;;;;0.70;0.70;;;;;;;-5.21;74.35;94561.13;4368026;32;20184;-59
2022/12/13 05:45:10;;;;;;;0.77;0.77;;;;;;;-5.33;74.84;94557.66;4371640;32;20306;-58
2022/12/13 05:47:36;;;;;;;0.60;0.60;;;;;;;-4.90;74.15;94549.84;4362287;32;20193;-59
2022/12/13 05:50:01;;;;;;;0.40;0.40;;;;;;;-5.05;73.94;94552.81;4364731;32;20208;-59
2022/12/13 05:52:27;;;;;;;0.37;0.37;;;;;;;-5.03;74.52;94561.13;4369388;32;20185;-59
2022/12/13 05:54:55;;;;;;;0.47;0.47;;;;;;;-5.34;74.51;94556.06;4373488;32;20181;-59
2022/12/13 05:57:21;;;;;;;1.00;0.75;;;;;;;-5.35;75.03;94554.50;4378346;32;20189;-58
2022/12/13 05:59:47;;;;;;;0.33;0.33;;;;;;;-4.77;73.53;94561.81;4365449;32;20200;-59
2022/12/13 06:02:12;;;;;;;1.70;0.40;;;;;;;-4.77;73.07;94559.22;4368154;32;20291;-58
2022/12/13 06:04:38;;;;;;;0.70;0.70;;;;;;;-5.09;72.90;94564.56;4364902;32;20181;-62
2022/12/13 06:07:04;;;;;;;1.97;0.40;;;;;;;-5.16;73.40;94548.34;4369076;32;20185;-59
2022/12/13 06:09:29;;;;;;;0.55;0.55;;;;;;;-5.06;73.18;94550.44;4367121;32;20185;-59
2022/12/13 06:11:55;;;;;;;0.20;0.20;;;;;;;-4.92;73.44;94550.06;4365726;32;20212;-58
2022/12/13 06:14:20;;;;;;;0.73;0.63;;;;;;;-4.72;72.58;94538.69;4367214;32;20203;-59
2022/12/13 06:16:46;;;;;;;0.77;0.77;;;;;;;-4.89;73.13;94551.44;4354814;32;20209;-58
2022/12/13 06:19:11;;;;;;;4.27;0.67;;;;;;;-4.97;73.44;94549.13;4365188;32;20172;-59
2022/12/13 06:21:37;;;;;;;0.93;0.93;;;;;;;-4.69;72.48;94549.41;4374095;32;20186;-58
2022/12/13 06:24:04;;;;;;;0.83;0.83;;;;;;;-4.62;72.10;94549.31;4362303;32;20208;-58
2022/12/13 06:26:30;;;;;;;0.57;0.57;;;;;;;-4.67;71.78;94554.34;4372035;32;20227;-58
2022/12/13 06:28:55;;;;;;;4.03;1.17;;;;;;;-4.48;71.64;94552.53;4336606;32;20205;-58
2022/12/13 06:31:20;;;;;;;0.30;0.30;;;;;;;-4.47;70.72;94556.69;4358797;32;20193;-59
2022/12/13 06:33:46;;;;;;;0.20;0.20;;;;;;;-4.51;70.59;94551.94;4371529;32;20181;-59
2022/12/13 06:36:11;;;;;;;1.60;0.80;;;;;;;-4.72;71.85;94549.81;4358324;32;20197;-58
2022/12/13 06:38:36;;;;;;;0.70;0.70;;;;;;;-4.69;71.80;94564.13;4380515;32;20204;-59
2022/12/13 06:41:09;;;;;;;0.43;0.30;;;;;;;-4.78;71.69;94555.84;4366907;32;20200;-59
2022/12/13 06:43:35;;;;;;;1.02;1.02;;;;;;;-4.90;72.35;94573.13;4371123;32;20338;-59
2022/12/13 06:46:04;;;;;;;0.40;0.40;;;;;;;-5.11;73.33;94565.78;4367974;32;20189;-59
2022/12/13 06:48:30;;;;;;;0.10;0.10;;;;;;;-4.89;73.03;94562.56;4366964;32;20286;-59
2022/12/13 06:51:00;;;;;;;0.57;0.43;;;;;;;-4.89;72.76;94570.31;4369530;32;20208;-59
2022/12/13 06:53:25;;;;;;;0.52;0.40;;;;;;;-4.88;72.37;94571.09;4371779;32;20189;-59
2022/12/13 06:55:50;;;;;;;0.33;0.33;;;;;;;-4.99;72.90;94564.84;4369624;32;20223;-58
2022/12/13 06:58:16;;;;;;;0.20;0.10;;;;;;;-5.05;72.49;94565.72;4370589;32;20264;-59
2022/12/13 07:00:41;;;;;;;0.70;0.70;;;;;;;-4.88;72.25;94560.75;4367064;32;20219;-59
2022/12/13 07:03:10;;;;;;;1.70;1.63;;;;;;;-5.05;72.85;94564.94;4370525;32;20212;-59
2022/12/13 07:05:37;;;;;;;0.45;0.35;;;;;;;-5.03;72.83;94568.91;4376723;32;20230;-59
2022/12/13 07:08:02;;;;;;;0.60;0.25;;;;;;;-5.29;73.77;94584.66;4394700;32;20185;-59
2022/12/13 07:10:28;;;;;;;0.10;0.10;;;;;;;-5.05;73.01;94591.56;4372980;32;20267;-59
2022/12/13 07:12:53;;;;;;;1.17;0.50;;;;;;;-4.88;72.16;94584.81;4371311;32;20184;-59
2022/12/13 07:15:18;;;;;;;0.20;0.20;;;;;;;-4.95;71.99;94583.31;4365968;32;20213;-59
2022/12/13 07:17:44;;;;;;;1.00;1.00;;;;;;;-5.05;77.28;94583.03;4363838;32;20193;-58
2022/12/13 07:20:12;;;;;;;0.20;0.20;;;;;;;-3.46;97.37;94565.13;4377094;32;20216;-59
2022/12/13 07:22:37;;;;;;;0.60;0.60;;;;;;;-2.37;100.00;94567.91;4372779;32;20184;-58
2022/12/13 07:25:04;;;;;;;0.43;0.43;;;;;;;-1.66;93.71;94568.34;4370360;32;20204;-58
2022/12/13 07:27:29;;;;;;;0.40;0.40;;;;;;;-1.06;87.59;94563.28;4363951;32;20184;-58
2022/12/13 07:29:54;;;;;;;0.53;0.53;;;;;;;-0.76;84.78;94568.84;4365708;32;20223;-59
2022/12/13 07:32:20;;;;;;;1.43;1.00;;;;;;;-2.13;66.51;94579.78;4377493;32;20271;-58
2022/12/13 07:34:45;;;;;;;1.03;1.03;;;;;;;-3.12;65.26;94575.75;4366121;32;20209;-59
2022/12/13 07:37:10;;;;;;;0.90;0.90;;;;;;;-3.93;68.04;94591.97;4370252;32;20214;-58
2022/12/13 07:39:35;;;;;;;4.83;1.57;;;;;;;-4.44;68.48;94582.91;4375550;32;20200;-59
2022/12/13 07:42:01;;;;;;;1.30;1.20;;;;;;;-4.56;69.29;94582.84;4369626;32;20189;-59
2022/12/13 07:44:26;;;;;;;0.50;0.50;;;;;;;-4.58;69.42;94582.31;4369063;32;20203;-60
2022/12/13 07:46:52;;;;;;;0.57;0.57;;;;;;;-4.28;69.09;94582.31;4374293;32;20241;-58
2022/12/13 07:49:17;;;;;;;1.43;0.97;;;;;;;-4.74;68.68;94589.84;4366830;32;20185;-59
2022/12/13 07:51:42;;;;;;;0.67;0.67;;;;;;;-4.93;70.82;94583.88;4373082;32;20201;-60
2022/12/13 07:54:08;;;;;;;1.60;0.73;;;;;;;-4.83;70.41;94588.56;4384839;32;20215;-63
2022/12/13 07:56:34;;;;;;;3.80;0.97;;;;;;;-4.64;70.22;94582.37;4372753;32;20185;-59
2022/12/13 07:59:00;;;;;;;3.22;0.50;;;;;;;-4.32;68.85;94585.53;4367683;32;20198;-59
2022/12/13 08:01:25;;;;;;;0.20;0.20;;;;;;;-3.91;72.62;94587.38;4375715;32;20189;-58
2022/12/13 08:03:50;;;;;;;0.47;0.47;;;;;;;-4.38;68.36;94592.41;4371216;32;20198;-58
2022/12/13 08:06:18;;;;;;;3.83;1.13;;;;;;;-4.14;67.15;94593.25;4371731;32;20204;-59
2022/12/13 08:08:43;;;;;;;2.47;0.95;;;;;;;-4.36;67.87;94590.37;4375783;32;20191;-56
2022/12/13 08:11:11;;;;;;;1.37;1.27;;;;;;;-4.20;67.37;94597.53;4380831;32;20188;-59
2022/12/13 08:13:38;;;;;;;1.25;1.15;;;;;;;-4.18;66.98;94587.75;4392682;32;20199;-59
2022/12/13 08:16:06;;;;;;;0.65;0.65;;;;;;;-4.28;67.40;94594.44;4376877;32;20222;-58
2022/12/13 08:18:32;;;;;;;1.10;0.85;;;;;;;-4.89;69.11;94596.19;4379197;32;20251;-57
2022/12/13 08:21:03;;;;;;;0.68;0.68;;;;;;;-5.00;70.37;94591.72;4366140;32;20181;-58
2022/12/13 08:23:30;;;;;;;1.40;1.37;;;;;;;-4.67;69.82;94582.81;4380235;32;20288;-58
2022/12/13 08:25:55;;;;;;;1.52;1.42;;;;;;;-5.01;69.98;94579.81;4367361;32;20203;-58
2022/12/13 08:28:22;;;;;;;0.57;0.57;;;;;;;-4.65;69.83;94580.78;4370729;32;20220;-59
2022/12/13 08:30:48;;;;;;;0.60;0.60;;;;;;;-5.04;70.01;94577.66;4363434;32;20189;-59
2022/12/13 08:33:14;;;;;;;1.12;1.12;;;;;;;-4.98;70.71;94576.78;4362591;32;20230;-58
2022/12/13 08:35:39;;;;;;;4.60;0.60;;;;;;;-4.61;69.20;94572.38;4364837;32;20185;-58
2022/12/13 08:38:04;;;;;;;1.73;0.80;;;;;;;-4.40;73.07;94578.88;4384803;32;20203;-58
2022/12/13 08:40:30;;;;;;;4.23;2.00;;;;;;;-0.96;92.87;94557.41;4382002;32;20184;-57
2022/12/13 08:42:55;;;;;;;1.70;1.60;;;;;;;-0.51;69.26;94559.78;4382571;32;20196;-58
2022/12/13 08:45:22;;;;;;;1.83;1.83;;;;;;;-1.04;61.89;94559.37;4366898;32;20242;-57
2022/12/13 08:47:48;;;;;;;1.73;1.12;;;;;;;-0.82;64.59;94564.59;4367521;32;20226;-57
2022/12/13 08:50:13;;;;;;;2.07;1.63;;;;;;;-1.32;57.60;94576.94;4361047;32;20181;-57
2022/12/13 08:52:39;;;;;;;0.87;0.87;;;;;;;-1.72;59.44;94590.88;4373386;32;20184;-56
2022/12/13 08:55:04;;;;;;;1.13;1.13;;;;;;;-2.49;61.96;94593.88;4383239;32;20185;-57
2022/12/13 08:57:29;;;;;;;2.17;2.07;;;;;;;-1.99;64.18;94585.47;4367227;32;20204;-59
2022/12/13 08:59:55;;;;;;;2.27;1.70;;;;;;;-1.27;60.76;94579.63;4363339;32;20192;-58
2022/12/13 09:02:20;;;;;;;2.10;1.93;;;;;;;-0.95;59.37;94582.41;4364403;32;20233;-58
2022/12/13 09:04:45;;;;;;;1.87;1.83;;;;;;;-1.21;57.43;94583.84;4388413;32;20203;-58
2022/12/13 09:07:11;;;;;;;1.17;1.07;;;;;;;-1.51;57.53;94595.38;4385411;32;20322;-58
2022/12/13 09:09:36;;;;;;;2.27;2.13;;;;;;;-2.04;59.41;94594.97;4386714;32;20181;-59
2022/12/13 09:12:02;;;;;;;7.30;2.00;;;;;;;-2.87;61.84;94604.00;4383905;32;20181;-57
2022/12/13 09:14:28;;;;;;;1.77;1.73;;;;;;;-2.90;62.65;94605.25;4371306;32;20207;-58
2022/12/13 09:16:53;;;;;;;1.67;1.57;;;;;;;-3.13;64.01;94597.50;4366840;32;20189;-58
2022/12/13 09:19:18;;;;;;;1.60;1.20;;;;;;;-3.64;65.53;94600.72;4368583;32;20233;-59
2022/12/13 09:21:44;;;;;;;1.73;1.63;;;;;;;-3.64;66.49;94598.91;4370761;32;20256;-59
2022/12/13 09:24:09;;;;;;;0.60;0.60;;;;;;;-3.54;66.73;94590.59;4391233;32;20203;-58
2022/12/13 09:26:34;;;;;;;1.83;1.00;;;;;;;-3.79;66.68;94584.81;4366945;32;20238;-58
2022/12/13 09:29:00;;;;;;;1.23;1.23;;;;;;;-3.99;68.50;94590.28;4353025;32;20190;-58
2022/12/13 09:31:25;;;;;;;0.47;0.47;;;;;;;-3.96;68.59;94584.66;4366563;32;20193;-58
2022/12/13 09:33:50;;;;;;;1.40;1.40;;;;;;;-3.60;67.32;94589.69;4364580;32;20244;-59
2022/12/13 09:36:18;;;;;;;4.40;1.60;;;;;;;-3.65;67.94;94586.97;4364644;32;20192;-58
2022/12/13 09:38:44;;;;;;;0.85;0.85;;;;;;;-3.89;68.49;94590.53;4388108;32;20195;-58
2022/12/13 09:41:24;;;;;;;1.67;1.00;;;;;;;-3.84;69.59;94588.84;4375113;32;20264;-58
2022/12/13 09:43:56;;;;;;;2.58;1.15;;;;;;;-4.04;70.35;94583.19;4373414;32;20184;-59
2022/12/13 09:46:25;;;;;;;0.32;0.32;;;;;;;-4.04;69.62;94585.75;4380954;32;20234;-57
2022/12/13 09:48:53;;;;;;;4.93;3.10;;;;;;;-3.53;69.41;94579.19;4398388;32;20211;-59
2022/12/13 09:51:18;;;;;;;0.82;0.82;;;;;;;-3.51;68.59;94572.00;4377629;32;20216;-58
2022/12/13 09:53:48;;;;;;;1.33;1.33;;;;;;;-3.36;68.11;94576.75;4364400;32;20188;-58
2022/12/13 09:56:14;;;;;;;0.93;0.85;;;;;;;-3.64;69.00;94578.19;4366293;32;20196;-58
2022/12/13 09:58:39;;;;;;;2.75;1.80;;;;;;;-3.87;69.03;94578.16;4381305;32;20259;-57
2022/12/13 10:01:05;;;;;;;0.83;0.83;;;;;;;-3.79;69.37;94567.47;4386031;32;20200;-59
2022/12/13 10:03:30;;;;;;;3.07;1.30;;;;;;;-3.96;70.23;94569.91;4367699;32;20185;-58
2022/12/13 10:06:11;;;;;;;0.70;0.70;;;;;;;-3.56;69.37;94564.13;4372007;32;20189;-58
2022/12/13 10:08:41;;;;;;;0.82;0.82;;;;;;;-4.00;70.65;94568.00;4370100;32;20203;-57
2022/12/13 10:11:12;;;;;;;1.10;1.10;;;;;;;-3.81;70.55;94564.31;4363809;32;20215;-58
2022/12/13 10:13:53;;;;;;;1.80;1.70;;;;;;;-3.82;70.11;94563.53;4383438;32;20207;-58
2022/12/13 10:16:44;;;;;;;2.53;1.30;;;;;;;-3.49;69.41;94554.41;4361947;32;20188;-58
2022/12/13 10:19:22;;;;;;;0.73;0.73;;;;;;;-3.48;69.38;94556.78;4359054;32;20251;-58
2022/12/13 10:21:50;;;;;;;1.23;1.23;;;;;;;-3.75;69.75;94555.66;4372323;32;20085;-58
2022/12/13 10:24:31;;;;;;;0.95;0.82;;;;;;;-3.84;70.98;94557.78;4376278;32;20184;-58
2022/12/13 10:27:08;;;;;;;1.85;1.35;;;;;;;-3.61;70.65;94549.25;4373160;32;20177;-58
2022/12/13 10:29:55;;;;;;;2.75;1.58;;;;;;;-3.81;71.37;94548.78;4368598;32;20192;-58
2022/12/13 10:32:20;;;;;;;1.05;1.05;;;;;;;-3.73;70.95;94547.62;4365473;32;20250;-58
2022/12/13 10:34:46;;;;;;;1.60;1.10;;;;;;;-3.78;71.11;94553.50;4361353;32;20223;-58
2022/12/13 10:37:30;;;;;;;1.90;1.80;;;;;;;-3.78;71.13;94545.75;4374681;32;20181;-58
2022/12/13 10:39:57;;;;;;;0.73;0.73;;;;;;;-3.50;71.39;94538.06;4377627;32;20219;-58
2022/12/13 10:42:24;;;;;;;0.55;0.55;;;;;;;-3.48;71.27;94532.66;4374207;32;20195;-58
2022/12/13 10:45:09;;;;;;;4.37;1.05;;;;;;;-3.41;70.66;94532.56;4377686;32;20231;-58
2022/12/13 10:47:35;;;;;;;1.52;1.37;;;;;;;-3.51;71.77;94527.94;4362972;32;20201;-58
2022/12/13 10:50:01;;;;;;;0.57;0.57;;;;;;;-3.26;71.00;94532.88;4371514;32;20199;-58
2022/12/13 10:52:34;;;;;;;0.40;0.40;;;;;;;-3.43;69.89;94521.63;4362089;32;20221;-58
2022/12/13 10:55:10;;;;;;;1.12;0.62;;;;;;;-3.27;69.65;94521.72;4371031;32;20259;-58
2022/12/13 10:57:36;;;;;;;0.30;0.30;;;;;;;-3.06;69.56;94524.75;4360426;32;20267;-58
2022/12/13 11:00:01;;;;;;;1.30;1.20;;;;;;;-3.22;69.62;94518.47;4372501;32;20177;-58
2022/12/13 11:02:32;;;;;;;0.93;0.93;;;;;;;-3.18;69.21;94522.97;4373977;32;20255;-58
2022/12/13 11:04:59;;;;;;;0.40;0.40;;;;;;;-3.16;69.31;94520.16;4366761;32;20259;-57
2022/12/13 11:07:29;;;;;;;0.80;0.73;;;;;;;-3.22;70.07;94515.88;4361906;32;20216;-58
2022/12/13 11:09:56;;;;;;;0.77;0.77;;;;;;;-3.11;69.53;94512.47;4369431;32;20204;-58
2022/12/13 11:12:26;;;;;;;1.05;1.05;;;;;;;-3.19;70.38;94515.41;4370424;32;20309;-59
2022/12/13 11:14:59;;;;;;;0.68;0.68;;;;;;;-3.34;70.64;94517.69;4381719;32;20223;-58
2022/12/13 11:17:28;;;;;;;1.45;1.10;;;;;;;-3.13;71.00;94515.31;4369061;32;20247;-58
2022/12/13 11:19:56;;;;;;;0.90;0.90;;;;;;;-2.84;69.89;94510.94;4368560;32;20298;-58
2022/12/13 11:22:26;;;;;;;1.37;1.35;;;;;;;-2.67;69.49;94515.41;4376383;32;20256;-57
2022/12/13 11:24:58;;;;;;;1.30;1.20;;;;;;;-2.70;68.61;94505.50;4375369;32;20220;-59
2022/12/13 11:27:48;;;;;;;0.80;0.80;;;;;;;-2.74;69.27;94512.94;4390244;32;20189;-58
2022/12/13 11:30:43;;;;;;;2.15;2.05;;;;;;;-2.64;69.09;94514.94;4378936;32;20192;-58
2022/12/13 11:33:35;;;;;;;1.52;1.25;;;;;;;-2.83;70.96;94496.94;4362879;32;20193;-58
2022/12/13 11:36:19;;;;;;;1.48;1.40;;;;;;;-3.04;70.85;94504.56;4363919;32;20206;-58
2022/12/13 11:38:56;;;;;;;1.23;0.82;;;;;;;-3.02;71.01;94505.91;4371690;32;20188;-58
2022/12/13 11:41:27;;;;;;;3.53;2.15;;;;;;;-3.34;72.44;94500.34;4367059;32;20235;-58
2022/12/13 11:44:00;;;;;;;2.12;1.95;;;;;;;-3.36;72.55;94499.00;4374097;32;20195;-58
2022/12/13 11:46:37;;;;;;;4.45;1.60;;;;;;;-3.13;72.54;94493.78;4392309;32;20184;-58